Aeroporto :
LOGIN :

Iscrizione | Disclaimer

   EN    FR    IT 

 










Sommario :    VFR   VFR Marginale   IFR   IFR Intensivo   IFR Molto Intensivo
Visibilità : 
Base nubi : 
>= 8 km
>= 3000ft
5 / 8 km
1000 / 3000 ft
1500m / 5 km
500 / 1000 ft
800 / 1500m
200 / 500 ft
< 800m
< 200 ft
Simboli :   Temporali  Nebbia  Neve Forte  Precipitazioni Forti  Vento > 20 kt
SIGMETs :   Varie  Temporali  Ghiacco  Turbolenza  Onda orograficha  Ceneri Vulcaniche






- Altitudine del aeroporto : 257 ft
- Codice IATA : MAN


EGCC - Manchester

ULTIMO METAR :
  • 150020Z AUTO 01008KT 9999 -RA BKN014 OVC038 05/04 Q1007

METARs OBSOLETI :
  • 142350Z AUTO 01008KT 9999 -RA BKN017 OVC036 05/04 Q1007
  • 142320Z AUTO 03012KT 9999 -RA BKN017 BKN026 BKN034 05/03 Q1007 NOSIG
  • 142250Z AUTO 01007KT 340V040 9999 -RA BKN015/// OVC024/// //////TCU 05/03 Q1007 NOSIG
  • 142220Z AUTO 03010KT 9999 -RA SCT021/// BKN028/// BKN038/// //////TCU 05/03 Q1007 NOSIG
  • 142150Z AUTO 03013KT 9999 -RA FEW015/// SCT036/// BKN046/// //////TCU 04/03 Q1007 NOSIG

TAF TAF EGCC
Valido dal 15 a 00 ore il 16 a 06 ore UTC


142304Z 1500/1606 02008KT 9999 FEW014 SCT025
PROB40
TEMPO 1500/1511 8000 -RA BKN014
TEMPO 1522/1606 8000 -RA BKN010
ATIS : +44 161 499 2324



MetMap, La meteo Aeronautica in un colpo d'occhio ! - Copyright ORBIFLY Dicembre 2007 - Disclaimer

ORBIFLY MET'MAP TEAM :

Programmazione e sviluppo : Alexandra Zaïnal
Concezione e sviluppo : Baudouin d'Aumeries
Co-Programmazione e sviluppo : Marc-Olivier Méhu
Supporto tecnico e logistico : Manuel Goepfert
Aiuto per la traduzione : Arnaldo La Scala

Contatto : metmap@orbifly.com




FONTI E CREDITI :

   NOAA